createdAt,value
2018-04-06T00:00:22.326Z,64.20
2018-04-06T00:04:25.706Z,64.60
2018-04-06T00:08:28.360Z,64.40
2018-04-06T00:12:31.090Z,64.20
2018-04-06T00:16:34.509Z,64.20
2018-04-06T00:20:37.913Z,64.30
2018-04-06T00:24:41.276Z,64.20
2018-04-06T00:28:43.964Z,64.10
2018-04-06T00:32:46.601Z,65.20
2018-04-06T00:36:50.039Z,64.40
2018-04-06T00:40:52.734Z,64.30
2018-04-06T00:44:55.338Z,64.60
2018-04-06T00:48:57.974Z,64.50
2018-04-06T00:53:01.370Z,64.50
2018-04-06T00:57:04.782Z,65.30
2018-04-06T01:01:08.145Z,64.60
2018-04-06T01:05:10.791Z,64.50
2018-04-06T01:09:13.438Z,64.40
2018-04-06T01:13:16.077Z,63.80
2018-04-06T01:17:18.725Z,64.40
2018-04-06T01:21:21.325Z,63.80
2018-04-06T01:25:24.001Z,63.90
2018-04-06T01:29:26.641Z,64.40
2018-04-06T01:33:29.299Z,64.40
2018-04-06T01:37:32.710Z,64.60
2018-04-06T01:41:36.073Z,64.20
2018-04-06T01:45:38.718Z,64.30
2018-04-06T01:49:41.353Z,64.30
2018-04-06T01:53:44.056Z,64.30
2018-04-06T01:57:46.703Z,64.10
2018-04-06T02:01:49.311Z,64.10
2018-04-06T02:05:51.949Z,63.90
2018-04-06T02:09:55.346Z,64.40
2018-04-06T02:13:58.753Z,64.40
2018-04-06T02:18:02.139Z,64.50
2018-04-06T02:22:05.549Z,64.40
2018-04-06T02:26:08.274Z,64.30
2018-04-06T02:30:10.924Z,64.20
2018-04-06T02:34:13.556Z,64.00
2018-04-06T02:38:16.198Z,64.20
2018-04-06T02:42:18.889Z,64.20
2018-04-06T02:46:21.531Z,64.30
2018-04-06T02:50:24.173Z,64.40
2018-04-06T02:54:26.818Z,64.60
2018-04-06T02:58:29.425Z,64.50
2018-04-06T03:02:32.074Z,64.40
2018-04-06T03:06:34.713Z,64.50
2018-04-06T03:10:37.418Z,64.60
2018-04-06T03:14:40.828Z,64.40
2018-04-06T03:18:44.259Z,64.40
2018-04-06T03:22:46.903Z,64.40
2018-04-06T03:26:49.544Z,64.40
2018-04-06T03:30:52.182Z,64.50
2018-04-06T03:34:54.787Z,64.40
2018-04-06T03:38:58.250Z,64.50
2018-04-06T03:43:00.950Z,64.50
2018-04-06T03:47:03.600Z,64.70
2018-04-06T03:51:06.239Z,65.00
2018-04-06T03:55:08.850Z,65.00
2018-04-06T03:59:12.261Z,64.90
2018-04-06T04:03:14.951Z,64.90
2018-04-06T04:07:18.355Z,64.90
2018-04-06T04:11:21.757Z,64.80
2018-04-06T04:15:25.130Z,65.20
2018-04-06T04:19:28.579Z,64.70
2018-04-06T04:23:32.000Z,64.60
2018-04-06T04:27:34.673Z,64.40
2018-04-06T04:31:38.081Z,65.10
2018-04-06T04:35:41.446Z,64.80
2018-04-06T04:39:44.141Z,64.80
2018-04-06T04:43:46.783Z,64.80
2018-04-06T04:47:49.475Z,65.00
2018-04-06T04:51:52.125Z,64.90
2018-04-06T04:55:55.500Z,71.30
2018-04-06T04:59:58.166Z,64.60
2018-04-06T05:04:00.813Z,65.00
2018-04-06T05:08:04.214Z,65.40
2018-04-06T05:12:07.578Z,65.50
2018-04-06T05:16:10.218Z,65.20
2018-04-06T05:20:13.636Z,65.80
2018-04-06T05:24:16.321Z,65.30
2018-04-06T05:28:19.018Z,66.20
2018-04-06T05:32:21.632Z,66.10
2018-04-06T05:36:24.328Z,66.50
2018-04-06T05:40:26.985Z,66.50
2018-04-06T05:44:29.630Z,67.00
2018-04-06T05:48:32.271Z,68.00
2018-04-06T05:52:34.874Z,66.80
2018-04-06T05:56:37.526Z,67.00
2018-04-06T06:00:40.169Z,67.30
2018-04-06T06:04:43.745Z,67.00
2018-04-06T06:08:46.390Z,66.80
2018-04-06T06:12:49.059Z,67.10
2018-04-06T06:16:52.503Z,67.70
2018-04-06T06:20:55.927Z,66.70
2018-04-06T06:24:58.617Z,66.60
2018-04-06T06:29:01.278Z,67.20
2018-04-06T06:33:03.901Z,67.90
2018-04-06T06:37:06.553Z,67.40
2018-04-06T06:41:09.962Z,67.80
2018-04-06T06:45:13.377Z,67.80
2018-04-06T06:49:16.748Z,68.00
2018-04-06T06:53:19.393Z,67.90
2018-04-06T06:57:22.030Z,69.30
2018-04-06T07:01:24.677Z,68.70
2018-04-06T07:05:27.285Z,68.70
2018-04-06T07:09:30.624Z,71.80
2018-04-06T07:13:33.899Z,70.80
2018-04-06T07:17:36.553Z,71.60
2018-04-06T07:21:39.194Z,70.60
2018-04-06T07:25:41.793Z,69.30
2018-04-06T07:29:45.197Z,70.40
2018-04-06T07:33:48.605Z,71.10
2018-04-06T07:37:52.060Z,69.80
2018-04-06T07:41:54.670Z,70.40
2018-04-06T07:45:57.276Z,72.90
2018-04-06T07:49:59.909Z,72.30
2018-04-06T07:54:02.547Z,70.70
2018-04-06T07:58:05.181Z,68.40
2018-04-06T08:02:07.822Z,67.00
2018-04-06T08:06:10.425Z,66.40
2018-04-06T08:10:13.062Z,63.50
2018-04-06T08:14:15.736Z,62.90
2018-04-06T08:18:18.378Z,59.30
2018-04-06T08:22:21.052Z,57.30
2018-04-06T08:26:23.748Z,58.40
2018-04-06T08:30:26.366Z,59.00
2018-04-06T08:34:29.766Z,56.40
2018-04-06T08:38:33.177Z,57.40
2018-04-06T08:42:36.580Z,56.90
2018-04-06T08:46:39.954Z,57.80
2018-04-06T08:50:42.663Z,57.80
2018-04-06T08:54:45.308Z,57.40
2018-04-06T08:58:47.958Z,58.80
2018-04-06T09:02:51.329Z,60.70
2018-04-06T09:06:54.023Z,60.10
2018-04-06T09:10:56.666Z,59.30
2018-04-06T09:14:59.294Z,60.40
2018-04-06T09:19:01.942Z,60.50
2018-04-06T09:23:04.554Z,60.50
2018-04-06T09:27:07.312Z,60.10
2018-04-06T09:31:09.963Z,61.40
2018-04-06T09:35:12.602Z,59.50
2018-04-06T09:39:16.017Z,59.10
2018-04-06T09:43:18.630Z,59.10
2018-04-06T09:47:21.271Z,59.20
2018-04-06T09:51:23.918Z,59.30
2018-04-06T09:55:26.650Z,59.50
2018-04-06T09:59:29.258Z,58.30
2018-04-06T10:03:32.731Z,58.60
2018-04-06T10:07:36.130Z,59.10
2018-04-06T10:11:39.590Z,58.60
2018-04-06T10:15:42.254Z,58.50
2018-04-06T10:19:44.865Z,58.00
2018-04-06T10:23:47.493Z,58.80
2018-04-06T10:27:50.130Z,57.30
2018-04-06T10:31:52.816Z,56.50
2018-04-06T10:35:55.508Z,56.60
2018-04-06T10:39:58.124Z,57.60
2018-04-06T10:44:00.798Z,54.70
2018-04-06T10:48:03.439Z,57.80
2018-04-06T10:52:06.856Z,57.10
2018-04-06T10:56:09.509Z,57.20
2018-04-06T11:00:12.108Z,55.40
2018-04-06T11:04:15.523Z,55.00
2018-04-06T11:08:18.972Z,56.20
2018-04-06T11:12:21.651Z,56.20
2018-04-06T11:16:24.334Z,56.10
2018-04-06T11:20:26.984Z,56.00
2018-04-06T11:24:29.620Z,53.80
2018-04-06T11:28:32.322Z,53.10
2018-04-06T11:32:34.964Z,53.60
2018-04-06T11:36:38.388Z,53.00
2018-04-06T11:40:41.028Z,52.80
2018-04-06T11:44:43.767Z,51.40
2018-04-06T11:48:46.474Z,51.70
2018-04-06T11:52:49.118Z,51.00
2018-04-06T11:56:52.654Z,51.20
2018-04-06T12:00:55.297Z,51.10
2018-04-06T12:04:57.954Z,48.20
2018-04-06T12:09:00.613Z,50.80
2018-04-06T12:13:03.267Z,52.00
2018-04-06T12:17:05.873Z,50.30
2018-04-06T12:21:09.290Z,51.90
2018-04-06T12:25:11.937Z,51.90
2018-04-06T12:29:14.679Z,51.10
2018-04-06T12:33:17.279Z,51.00
2018-04-06T12:37:19.930Z,51.80
2018-04-06T12:41:23.342Z,50.70
2018-04-06T12:45:26.814Z,50.80
2018-04-06T12:49:29.458Z,50.60
2018-04-06T12:53:32.057Z,52.30
2018-04-06T12:57:34.763Z,51.00
2018-04-06T13:01:37.412Z,50.00
2018-04-06T13:05:40.819Z,49.40
2018-04-06T13:09:43.554Z,49.50
2018-04-06T13:13:46.213Z,49.10
2018-04-06T13:17:48.860Z,48.90
2018-04-06T13:21:51.566Z,48.60
2018-04-06T13:25:55.003Z,47.70
2018-04-06T13:29:57.658Z,47.40
2018-04-06T13:34:01.019Z,47.60
2018-04-06T13:38:03.671Z,47.50
2018-04-06T13:42:06.379Z,46.00
2018-04-06T13:46:09.026Z,45.80
2018-04-06T13:50:12.406Z,46.00
2018-04-06T13:54:15.057Z,46.10
2018-04-06T13:58:17.764Z,45.30
2018-04-06T14:02:20.413Z,44.80
2018-04-06T14:06:23.883Z,45.50
2018-04-06T14:10:26.548Z,45.50
2018-04-06T14:14:29.190Z,45.00
2018-04-06T14:18:32.597Z,44.30
2018-04-06T14:22:36.015Z,43.20
2018-04-06T14:26:38.673Z,43.10
2018-04-06T14:30:41.281Z,41.50
2018-04-06T14:34:44.694Z,42.60
2018-04-06T14:38:48.126Z,40.40
2018-04-06T14:42:50.846Z,40.30
2018-04-06T14:46:53.607Z,41.20
2018-04-06T14:50:56.200Z,39.20
2018-04-06T14:54:58.838Z,39.20
2018-04-06T14:59:02.254Z,41.40
2018-04-06T15:03:05.661Z,41.90
2018-04-06T15:07:09.074Z,40.60
2018-04-06T15:11:12.438Z,40.10
2018-04-06T15:15:15.082Z,39.90
2018-04-06T15:19:17.725Z,41.00
2018-04-06T15:23:20.362Z,40.40
2018-04-06T15:27:22.958Z,38.50
2018-04-06T15:31:25.658Z,40.10
2018-04-06T15:35:28.304Z,38.30
2018-04-06T15:43:40.562Z,38.50
2018-04-06T15:47:43.157Z,41.00
2018-04-06T15:51:45.801Z,43.30
2018-04-06T15:55:48.445Z,44.70
2018-04-06T15:59:51.097Z,41.20
2018-04-06T16:03:54.507Z,44.00
2018-04-06T16:07:57.939Z,45.00
2018-04-06T16:12:00.637Z,44.90
2018-04-06T16:16:03.273Z,45.20
2018-04-06T16:20:07.504Z,45.90
2018-04-06T16:24:10.918Z,46.40
2018-04-06T16:28:13.556Z,46.30
2018-04-06T16:32:16.313Z,46.60
2018-04-06T16:36:18.965Z,47.20
2018-04-06T16:40:21.613Z,48.00
2018-04-06T16:44:24.211Z,48.20
2018-04-06T16:48:26.853Z,47.70
2018-04-06T16:52:30.270Z,48.40
2018-04-06T16:56:32.910Z,48.40
2018-04-06T17:00:35.556Z,48.80
2018-04-06T17:04:38.161Z,49.10
2018-04-06T17:08:40.849Z,50.10
2018-04-06T17:12:43.485Z,49.60
2018-04-06T17:16:46.951Z,50.30
2018-04-06T17:20:49.742Z,50.20
2018-04-06T17:24:52.349Z,49.90
2018-04-06T17:28:54.994Z,50.20
2018-04-06T17:32:57.643Z,50.00
2018-04-06T17:37:00.285Z,50.70
2018-04-06T17:41:02.937Z,51.00
2018-04-06T17:45:06.306Z,51.70
2018-04-06T17:49:08.978Z,51.60
2018-04-06T17:53:11.627Z,51.70
2018-04-06T17:57:14.272Z,51.80
2018-04-06T18:01:16.881Z,52.00
2018-04-06T18:05:20.282Z,52.50
2018-04-06T18:09:23.012Z,52.50
2018-04-06T18:13:25.646Z,52.50
2018-04-06T18:17:28.299Z,52.70
2018-04-06T18:21:30.993Z,52.40
2018-04-06T18:25:33.677Z,52.60
2018-04-06T18:29:36.313Z,52.50
2018-04-06T18:33:38.961Z,52.80
2018-04-06T18:37:41.607Z,52.70
2018-04-06T18:41:44.975Z,53.00
2018-04-06T18:45:47.675Z,53.00
2018-04-06T18:49:50.410Z,53.30
2018-04-06T18:53:53.085Z,53.60
2018-04-06T18:57:56.548Z,53.90
2018-04-06T19:01:59.154Z,53.90
2018-04-06T19:06:01.850Z,54.30
2018-04-06T19:10:04.493Z,54.50
2018-04-06T19:14:07.130Z,54.70
2018-04-06T19:18:10.493Z,55.50
2018-04-06T19:22:13.178Z,54.90
2018-04-06T19:26:15.865Z,55.20
2018-04-06T19:30:18.553Z,55.60
2018-04-06T19:34:21.202Z,55.60
2018-04-06T19:38:24.571Z,56.00
2018-04-06T19:42:27.230Z,55.80
2018-04-06T19:46:29.882Z,55.80
2018-04-06T19:50:33.289Z,55.80
2018-04-06T19:54:36.662Z,56.00
2018-04-06T19:58:39.310Z,56.00
2018-04-06T20:02:41.950Z,56.10
2018-04-06T20:06:44.593Z,56.50
2018-04-06T20:10:48.009Z,56.50
2018-04-06T20:14:50.610Z,56.40
2018-04-06T20:18:53.302Z,57.00
2018-04-06T20:22:55.949Z,56.60
2018-04-06T20:26:58.590Z,56.90
2018-04-06T20:31:01.189Z,57.50
2018-04-06T20:35:03.820Z,57.50
2018-04-06T20:39:06.458Z,57.60
2018-04-06T20:43:09.093Z,57.70
2018-04-06T20:47:11.742Z,57.60
2018-04-06T20:51:14.346Z,58.10
2018-04-06T20:55:17.157Z,57.90
2018-04-06T20:59:19.802Z,58.10
2018-04-06T21:03:22.535Z,57.90
2018-04-06T21:07:25.130Z,58.20
2018-04-06T21:11:27.821Z,57.80
2018-04-06T21:15:30.457Z,57.60
2018-04-06T21:19:33.190Z,57.70
2018-04-06T21:23:36.602Z,58.50
2018-04-06T21:27:39.214Z,57.90
2018-04-06T21:31:41.857Z,58.00
2018-04-06T21:35:45.266Z,58.20
2018-04-06T21:39:47.970Z,58.10
2018-04-06T21:43:50.605Z,58.50
2018-04-06T21:47:53.314Z,58.60
2018-04-06T21:51:55.958Z,58.30
2018-04-06T21:55:58.597Z,58.40
2018-04-06T22:00:02.005Z,58.50
2018-04-06T22:04:05.370Z,58.30
2018-04-06T22:08:08.011Z,58.30
2018-04-06T22:12:10.654Z,58.30
2018-04-06T22:16:13.354Z,58.10
2018-04-06T22:20:15.997Z,58.10
2018-04-06T22:24:18.657Z,57.90
2018-04-06T22:28:22.068Z,57.80
2018-04-06T22:32:25.472Z,58.10
2018-04-06T22:36:28.885Z,57.90
2018-04-06T22:40:32.294Z,57.80
2018-04-06T22:44:35.022Z,57.70
2018-04-06T22:48:37.662Z,57.60
2018-04-06T22:52:41.131Z,57.30
2018-04-06T22:56:43.836Z,57.30
2018-04-06T23:00:46.482Z,57.10
2018-04-06T23:04:49.081Z,57.00
2018-04-06T23:08:51.731Z,56.80
2018-04-06T23:12:54.366Z,56.60
2018-04-06T23:16:57.016Z,56.40
2018-04-06T23:20:59.605Z,56.30
2018-04-06T23:25:02.238Z,56.30
2018-04-06T23:29:04.890Z,56.30
2018-04-06T23:33:07.533Z,56.30
2018-04-06T23:37:10.181Z,56.10
2018-04-06T23:41:12.782Z,56.10
2018-04-06T23:45:15.425Z,56.10
2018-04-06T23:49:18.095Z,56.20
2018-04-06T23:53:21.617Z,56.30
2018-04-06T23:57:24.981Z,56.30
